Latest Weather Observations for Marion Reef

IDQ60801

Issued at 9:32 pm EST Thursday 23 February 2017 (issued every 30 minutes, with the page automatically refreshed every 10 minutes)

About weather observations | Map of weather stations | Latest weather observations for QLD | Other Formats
Station Details ID: 200704 Name: MARION REEF Lat: -19.10 Lon: 152.39 Height: 2.0 m
Data from the previous 72 hours. | See also: Recent months for locations in Queensland
Date/Time
EST
Temp
°C
App
Temp
°C
Dew
Point
°C
Rel
Hum
%
Delta-T
°C
Wind Press
QNH
hPa
Press
MSL
hPa
Rain since
9am
mm
Dir  Spd
km/h
Gust
km/h
Spd
kts
Gust
kts
23/09:00pm 28.6 - - - - SE 28 32 15 17 1012.9 1012.9 -
23/08:30pm 28.2 - - - - SE 30 33 16 18 1012.7 - -
23/08:00pm 28.7 - - - - SE 26 30 14 16 1012.7 1012.6 -
23/07:30pm 28.5 - - - - SE 24 30 13 16 1012.4 - -
23/07:00pm 28.6 - - - - ESE 28 30 15 16 1012.2 1012.1 -
23/06:30pm 28.3 - - - - SE 30 33 16 18 1011.9 - -
23/06:00pm 28.5 - - - - SSE 28 33 15 18 1011.6 1011.6 -
23/05:30pm 28.5 - - - - SSE 28 32 15 17 1011.4 - -
23/05:00pm 28.6 - - - - SSE 28 32 15 17 1011.2 1011.1 -
23/04:30pm 28.7 - - - - SE 28 32 15 17 1011.1 - -
23/04:00pm 28.8 - - - - SE 26 30 14 16 1011.1 1011.0 -
23/03:30pm 28.8 - - - - SSE 24 28 13 15 1011.0 - -
23/03:00pm 28.9 - - - - SSE 24 28 13 15 1011.0 1010.9 -
23/02:30pm 28.9 - - - - SSE 26 30 14 16 1011.1 - -
23/02:00pm 28.8 - - - - SE 22 26 12 14 1011.3 1011.1 -
23/01:30pm 28.7 - - - - SE 22 26 12 14 1011.6 - -
23/01:00pm 28.9 - - - - SE 24 28 13 15 1011.8 1011.7 -
23/12:30pm 29.0 - - - - SE 24 26 13 14 1012.2 - -
23/12:00pm 28.7 - - - - SE 24 26 13 14 1012.5 1012.4 -
23/11:30am 28.8 - - - - ESE 22 26 12 14 1012.8 - -
23/11:00am 28.6 - - - - SE 24 28 13 15 1013.0 1012.9 -
23/10:30am 28.7 - - - - SE 26 30 14 16 1013.2 - -
23/10:00am 29.0 - - - - SE 24 26 13 14 1013.4 1013.3 -
23/09:30am 29.0 - - - - ESE 24 26 13 14 1013.4 - -
23/09:00am 28.5 - - - - ESE 24 28 13 15 1013.3 1013.2 -
23/08:30am 28.8 - - - - ESE 24 30 13 16 1013.3 - -
23/08:00am 28.6 - - - - ESE 24 28 13 15 1013.0 1013.0 -
23/07:30am 28.6 - - - - E 24 28 13 15 1012.8 - -
23/07:00am 28.5 - - - - E 26 30 14 16 1012.5 1012.4 -
23/06:30am 28.6 - - - - E 26 30 14 16 1012.3 - -
23/06:00am 28.6 - - - - E 28 32 15 17 1011.9 1011.8 -
23/05:30am 28.5 - - - - ESE 28 33 15 18 1011.6 - -
23/05:00am 28.5 - - - - ESE 30 35 16 19 1011.2 1011.1 -
23/04:30am 28.4 - - - - ESE 32 35 17 19 1011.0 - -
23/04:00am 28.6 - - - - E 32 39 17 21 1010.9 1010.9 -
23/03:30am 27.9 - - - - SE 30 33 16 18 1011.0 - -
23/03:00am 27.7 - - - - SE 35 41 19 22 1011.1 1010.9 -
23/02:30am 28.2 - - - - ESE 33 39 18 21 1011.0 - -
23/02:00am 28.3 - - - - ESE 35 41 19 22 1011.0 1010.9 -
23/01:30am 28.3 - - - - SE 35 39 19 21 1011.2 - -
23/01:00am 28.5 - - - - SE 35 43 19 23 1011.4 1011.3 -
23/12:30am 28.5 - - - - ESE 37 43 20 23 1011.6 - -
23/12:00am 28.7 - - - - ESE 37 44 20 24 1011.9 1011.8 -
 
Date/Time
EST
Temp
°C
App
Temp
°C
Dew
Point
°C
Rel
Hum
%
Delta-T
°C
Wind Press
QNH
hPa
Press
MSL
hPa
Rain since
9am
mm
Dir  Spd
km/h
Gust
km/h
Spd
kts
Gust
kts
22/11:30pm 28.3 - - - - ESE 35 41 19 22 1012.2 - -
22/11:00pm 28.4 - - - - ESE 37 41 20 22 1012.3 1012.2 -
22/10:30pm 28.6 - - - - ESE 35 43 19 23 1012.4 - -
22/10:00pm 28.1 - - - - SE 33 41 18 22 1012.3 1012.2 -
22/09:30pm 27.3 - - - - ESE 41 48 22 26 1012.1 - -
22/09:00pm 26.9 - - - - SE 41 52 22 28 1011.8 1011.8 -
22/08:53pm 27.9 - - - - SE 33 52 18 28 1011.7 - -
22/08:30pm 27.3 - - - - SSE 30 35 16 19 1011.7 - -
22/08:00pm 26.2 - - - - SSE 39 50 21 27 1011.7 1011.6 -
22/07:35pm 27.9 - - - - SE 33 52 18 28 1011.4 - -
22/07:30pm 28.4 - - - - SE 33 39 18 21 1011.4 - -
22/07:00pm 28.2 - - - - SE 33 39 18 21 1011.2 1011.0 -
22/06:30pm 28.3 - - - - SE 33 39 18 21 1010.9 - -
22/06:00pm 28.0 - - - - SE 33 39 18 21 1010.8 1010.7 -
22/05:30pm 28.3 - - - - SE 32 37 17 20 1010.6 - -
22/05:00pm 28.1 - - - - SE 28 33 15 18 1010.3 1010.2 -
22/04:30pm 28.2 - - - - SE 30 35 16 19 1010.0 - -
22/04:00pm 28.2 - - - - SE 33 39 18 21 1009.9 1009.8 -
22/03:30pm 28.3 - - - - SE 33 39 18 21 1009.9 - -
22/03:00pm 28.3 - - - - SE 33 37 18 20 1009.9 1009.8 -
22/02:30pm 28.1 - - - - SE 33 39 18 21 1010.3 - -
22/02:00pm 28.3 - - - - SE 35 39 19 21 1010.5 1010.3 -
22/01:30pm 28.5 - - - - SE 35 39 19 21 1010.6 - -
22/01:00pm 28.7 - - - - SE 33 37 18 20 1010.7 1010.6 -
22/12:30pm 28.6 - - - - SE 33 39 18 21 1011.1 - -
22/12:00pm 28.5 - - - - SE 33 - 18 - - 1011.4 -
22/11:00am 28.7 - - - - SE 32 37 17 20 1012.2 1012.1 -
22/10:30am 28.7 - - - - SE 33 39 18 21 1012.2 - -
22/10:00am 28.6 - - - - SSE 33 43 18 23 1012.5 1012.4 -
22/09:30am 28.8 - - - - SE 28 33 15 18 1012.6 - -
22/09:00am 28.6 - - - - SE 28 33 15 18 1012.7 1012.6 -
22/08:30am 28.4 - - - - SE 28 32 15 17 1012.7 - -
22/08:00am 28.3 - - - - ESE 28 32 15 17 1012.5 1012.4 -
22/07:30am 28.4 - - - - ESE 26 32 14 17 1012.4 - -
22/07:00am 28.4 - - - - SE 22 26 12 14 1012.4 1012.3 -
22/06:30am 28.2 - - - - SE 20 24 11 13 1012.0 - -
22/06:00am 28.2 - - - - SE 19 24 10 13 1011.7 1011.5 -
22/05:30am 28.2 - - - - ESE 20 24 11 13 1011.4 - -
22/05:00am 27.9 - - - - ESE 22 26 12 14 1011.3 1011.2 -
22/04:30am 27.9 - - - - ESE 17 24 9 13 1011.2 - -
22/04:00am 27.9 - - - - SE 17 20 9 11 1011.2 1011.1 -
22/03:30am 28.0 - - - - SE 19 24 10 13 1011.1 - -
22/03:00am 27.8 - - - - SE 20 24 11 13 1011.0 1010.9 -
22/02:30am 27.9 - - - - SE 22 28 12 15 1011.1 - -
22/02:00am 28.1 - - - - ESE 20 26 11 14 1011.3 1011.2 -
22/01:30am 27.9 - - - - ESE 24 28 13 15 1011.5 - -
22/01:00am 28.0 - - - - ESE 24 26 13 14 1011.8 1011.6 -
22/12:30am 28.0 - - - - ESE 26 32 14 17 1012.1 - -
22/12:00am 28.1 - - - - SE 26 32 14 17 1012.4 1012.3 -
 
Date/Time
EST
Temp
°C
App
Temp
°C
Dew
Point
°C
Rel
Hum
%
Delta-T
°C
Wind Press
QNH
hPa
Press
MSL
hPa
Rain since
9am
mm
Dir  Spd
km/h
Gust
km/h
Spd
kts
Gust
kts
21/11:30pm 28.0 - - - - SE 28 32 15 17 1012.5 - -
21/11:00pm 28.0 - - - - SE 28 32 15 17 1012.8 1012.6 -
21/10:30pm 27.8 - - - - SE 28 32 15 17 1013.0 - -
21/10:00pm 28.2 - - - - SE 30 35 16 19 1013.0 1012.9 -
21/09:30pm 27.9 - - - - SE 32 35 17 19 1012.8 - -
21/09:00pm 28.5 - - - - SSE 26 32 14 17 1012.8 1012.7 -
21/08:30pm 28.1 - - - - SSE 24 30 13 16 1012.6 - -
21/08:00pm 28.3 - - - - SSE 26 30 14 16 1012.4 1012.4 -
21/07:30pm 28.0 - - - - SSE 26 32 14 17 1012.1 - -
21/07:00pm 27.7 - - - - S 20 22 11 12 1012.0 1012.0 -
21/06:30pm 26.9 - - - - S 17 20 9 11 1011.8 - -
21/06:00pm 26.4 - - - - SSE 20 26 11 14 1011.6 1011.5 -
21/05:43pm 25.3 - - - - SSE 37 43 20 23 1011.7 - -
21/05:30pm 26.3 - - - - S 37 48 20 26 1011.6 - -
21/05:08pm 27.4 - - - - S 37 44 20 24 1011.3 - -
21/05:00pm 28.5 - - - - SSE 24 26 13 14 1011.3 1011.2 -
21/04:30pm 28.3 - - - - SSE 19 24 10 13 1011.0 - -
21/04:00pm 28.4 - - - - SSE 19 24 10 13 1011.0 1010.9 -
21/03:30pm 28.6 - - - - S 22 26 12 14 1011.0 - -
21/03:00pm 28.4 - - - - SSE 20 26 11 14 1011.2 1011.0 -
21/02:30pm 28.5 - - - - SSE 22 26 12 14 1011.3 - -
21/02:00pm 28.3 - - - - SSE 22 26 12 14 1011.3 1011.2 -
21/01:30pm 28.3 - - - - SSE 22 28 12 15 1011.5 - -
21/01:00pm 28.4 - - - - S 24 30 13 16 1011.7 1011.6 -
21/12:30pm 28.2 - - - - SSE 24 28 13 15 1012.1 - -
21/12:00pm 27.9 - - - - SSE 19 24 10 13 1012.5 1012.3 -
21/11:30am 28.5 - - - - SSE 19 22 10 12 1012.8 - -
21/11:00am 28.3 - - - - SSE 20 22 11 12 1012.9 1012.7 -
21/10:30am 28.5 - - - - SSE 19 22 10 12 1013.3 - -
21/10:00am 28.3 - - - - S 20 26 11 14 1013.0 1012.9 -
21/09:30am 28.1 - - - - S 20 24 11 13 1013.1 - -
21/09:00am 28.4 - - - - SSE 19 22 10 12 1012.9 1012.8 -
21/08:30am 28.2 - - - - SSE 19 22 10 12 1012.8 - -
21/08:00am 28.2 - - - - SSE 2 6 1 3 1012.7 1012.6 -
21/07:30am 28.1 - - - - SSE 2 6 1 3 1012.3 - -
21/07:00am 28.1 - - - - SSE 2 6 1 3 1012.0 1012.0 -
21/06:30am 27.8 - - - - SSE 2 4 1 2 1011.7 - -
21/06:00am 27.9 - - - - S 2 7 1 4 1011.4 1011.3 -
21/05:30am 27.7 - - - - S 2 4 1 2 1011.2 - -
21/05:00am 27.9 - - - - SSE 2 6 1 3 1011.0 1010.9 -
21/04:30am 27.7 - - - - CALM 0 2 0 1 1010.8 - -
21/04:00am 27.7 - - - - CALM 0 4 0 2 1010.5 1010.4 -
21/03:30am 27.6 - - - - CALM 0 4 0 2 1010.3 - -
21/03:00am 27.6 - - - - CALM 0 6 0 3 1010.1 1010.0 -
21/02:30am 27.6 - - - - CALM 0 6 0 3 1010.1 - -
21/02:00am 27.6 - - - - CALM 0 4 0 2 1010.3 1010.1 -
21/01:30am 27.7 - - - - CALM 0 4 0 2 1010.7 - -
21/01:00am 27.8 - - - - CALM 0 6 0 3 1011.0 1010.9 -
21/12:30am 27.9 - - - - CALM 0 4 0 2 1011.5 - -
21/12:00am 28.0 - - - - ESE 2 9 1 5 1011.6 1011.5 -
 
Date/Time
EST
Temp
°C
App
Temp
°C
Dew
Point
°C
Rel
Hum
%
Delta-T
°C
Wind Press
QNH
hPa
Press
MSL
hPa
Rain since
9am
mm
Dir  Spd
km/h
Gust
km/h
Spd
kts
Gust
kts
20/11:30pm 27.9 - - - - CALM 0 4 0 2 1011.8 - -
20/11:00pm 28.3 - - - - SE 2 6 1 3 1012.1 1012.0 -
20/10:30pm 28.2 - - - - SE 2 6 1 3 1012.4 - -
20/10:00pm 28.0 - - - - SE 2 6 1 3 1012.4 1012.3 -

Other Formats:

Comma delimited format used in spreadsheet applications
http://www.bom.gov.au/fwo/IDQ60801/IDQ60801.94298.axf

JavaScript Object Notation format (JSON) in row-major order
http://www.bom.gov.au/fwo/IDQ60801/IDQ60801.94298.json